sensor_id;sensor_type;location;lat;lon;timestamp;P1;durP1;ratioP1;P2;durP2;ratioP2
6985;SDS011;3533;51.246;6.850;2023-07-13T00:00:28;1.27;;;1.17;;
6985;SDS011;3533;51.246;6.850;2023-07-13T00:02:55;0.90;;;0.90;;
6985;SDS011;3533;51.246;6.850;2023-07-13T00:05:21;1.13;;;1.10;;
6985;SDS011;3533;51.246;6.850;2023-07-13T00:07:47;0.80;;;0.80;;
6985;SDS011;3533;51.246;6.850;2023-07-13T00:10:13;1.00;;;1.00;;
6985;SDS011;3533;51.246;6.850;2023-07-13T00:12:39;1.10;;;0.90;;
6985;SDS011;3533;51.246;6.850;2023-07-13T00:15:07;1.00;;;1.00;;
6985;SDS011;3533;51.246;6.850;2023-07-13T00:17:45;1.10;;;1.00;;
6985;SDS011;3533;51.246;6.850;2023-07-13T00:20:12;0.80;;;0.80;;
6985;SDS011;3533;51.246;6.850;2023-07-13T00:22:38;0.90;;;0.90;;
6985;SDS011;3533;51.246;6.850;2023-07-13T00:25:03;1.10;;;1.00;;
6985;SDS011;3533;51.246;6.850;2023-07-13T00:27:29;1.00;;;1.00;;
6985;SDS011;3533;51.246;6.850;2023-07-13T00:29:56;1.00;;;1.00;;
6985;SDS011;3533;51.246;6.850;2023-07-13T00:32:23;1.07;;;0.97;;
6985;SDS011;3533;51.246;6.850;2023-07-13T00:34:52;0.80;;;0.80;;
6985;SDS011;3533;51.246;6.850;2023-07-13T00:37:18;0.87;;;0.87;;
6985;SDS011;3533;51.246;6.850;2023-07-13T00:39:44;0.80;;;0.80;;
6985;SDS011;3533;51.246;6.850;2023-07-13T00:42:10;1.00;;;0.90;;
6985;SDS011;3533;51.246;6.850;2023-07-13T00:44:36;1.00;;;1.00;;
6985;SDS011;3533;51.246;6.850;2023-07-13T00:47:01;0.80;;;0.80;;
6985;SDS011;3533;51.246;6.850;2023-07-13T00:49:27;0.73;;;0.70;;
6985;SDS011;3533;51.246;6.850;2023-07-13T00:51:59;0.90;;;0.90;;
6985;SDS011;3533;51.246;6.850;2023-07-13T00:54:30;1.10;;;1.00;;
6985;SDS011;3533;51.246;6.850;2023-07-13T00:57:05;0.80;;;0.80;;
6985;SDS011;3533;51.246;6.850;2023-07-13T00:59:33;0.83;;;0.83;;
6985;SDS011;3533;51.246;6.850;2023-07-13T01:02:01;1.10;;;1.00;;
6985;SDS011;3533;51.246;6.850;2023-07-13T01:04:27;1.00;;;0.90;;
6985;SDS011;3533;51.246;6.850;2023-07-13T01:06:53;0.90;;;0.90;;
6985;SDS011;3533;51.246;6.850;2023-07-13T01:09:19;0.80;;;0.80;;
6985;SDS011;3533;51.246;6.850;2023-07-13T01:11:45;0.70;;;0.70;;
6985;SDS011;3533;51.246;6.850;2023-07-13T01:14:12;1.00;;;0.90;;
6985;SDS011;3533;51.246;6.850;2023-07-13T01:16:38;0.80;;;0.80;;
6985;SDS011;3533;51.246;6.850;2023-07-13T01:19:08;0.90;;;0.90;;
6985;SDS011;3533;51.246;6.850;2023-07-13T01:22:00;0.80;;;0.80;;
6985;SDS011;3533;51.246;6.850;2023-07-13T01:24:41;0.80;;;0.80;;
6985;SDS011;3533;51.246;6.850;2023-07-13T01:27:08;0.80;;;0.80;;
6985;SDS011;3533;51.246;6.850;2023-07-13T01:29:36;1.10;;;1.00;;
6985;SDS011;3533;51.246;6.850;2023-07-13T01:32:06;0.90;;;0.90;;
6985;SDS011;3533;51.246;6.850;2023-07-13T01:34:38;0.80;;;0.80;;
6985;SDS011;3533;51.246;6.850;2023-07-13T01:37:07;0.90;;;0.90;;
6985;SDS011;3533;51.246;6.850;2023-07-13T01:39:36;0.90;;;0.90;;
6985;SDS011;3533;51.246;6.850;2023-07-13T01:42:02;0.87;;;0.87;;
6985;SDS011;3533;51.246;6.850;2023-07-13T01:44:28;0.87;;;0.87;;
6985;SDS011;3533;51.246;6.850;2023-07-13T01:46:54;0.90;;;0.90;;
6985;SDS011;3533;51.246;6.850;2023-07-13T01:49:19;1.20;;;0.83;;
6985;SDS011;3533;51.246;6.850;2023-07-13T01:51:45;0.80;;;0.80;;
6985;SDS011;3533;51.246;6.850;2023-07-13T01:54:11;0.93;;;0.90;;
6985;SDS011;3533;51.246;6.850;2023-07-13T01:56:36;1.00;;;0.90;;
6985;SDS011;3533;51.246;6.850;2023-07-13T01:59:02;1.00;;;0.90;;
6985;SDS011;3533;51.246;6.850;2023-07-13T02:01:27;0.90;;;0.90;;
6985;SDS011;3533;51.246;6.850;2023-07-13T02:03:53;0.80;;;0.80;;
6985;SDS011;3533;51.246;6.850;2023-07-13T02:06:18;0.80;;;0.80;;
6985;SDS011;3533;51.246;6.850;2023-07-13T02:08:44;0.80;;;0.80;;
6985;SDS011;3533;51.246;6.850;2023-07-13T02:11:10;0.90;;;0.80;;
6985;SDS011;3533;51.246;6.850;2023-07-13T02:13:36;1.10;;;1.00;;
6985;SDS011;3533;51.246;6.850;2023-07-13T02:16:01;0.80;;;0.80;;
6985;SDS011;3533;51.246;6.850;2023-07-13T02:18:27;0.80;;;0.80;;
6985;SDS011;3533;51.246;6.850;2023-07-13T02:20:52;1.00;;;0.90;;
6985;SDS011;3533;51.246;6.850;2023-07-13T02:23:18;1.23;;;1.13;;
6985;SDS011;3533;51.246;6.850;2023-07-13T02:25:44;0.97;;;0.93;;
6985;SDS011;3533;51.246;6.850;2023-07-13T02:28:10;1.10;;;1.00;;
6985;SDS011;3533;51.246;6.850;2023-07-13T02:30:35;1.00;;;0.97;;
6985;SDS011;3533;51.246;6.850;2023-07-13T02:33:01;0.93;;;0.93;;
6985;SDS011;3533;51.246;6.850;2023-07-13T02:35:27;0.80;;;0.80;;
6985;SDS011;3533;51.246;6.850;2023-07-13T02:37:53;0.90;;;0.90;;
6985;SDS011;3533;51.246;6.850;2023-07-13T02:40:19;0.87;;;0.87;;
6985;SDS011;3533;51.246;6.850;2023-07-13T02:42:45;0.90;;;0.90;;
6985;SDS011;3533;51.246;6.850;2023-07-13T02:45:10;1.00;;;0.90;;
6985;SDS011;3533;51.246;6.850;2023-07-13T02:47:39;0.83;;;0.83;;
6985;SDS011;3533;51.246;6.850;2023-07-13T02:50:05;0.90;;;0.90;;
6985;SDS011;3533;51.246;6.850;2023-07-13T02:52:31;0.87;;;0.83;;
6985;SDS011;3533;51.246;6.850;2023-07-13T02:54:56;0.83;;;0.83;;
6985;SDS011;3533;51.246;6.850;2023-07-13T02:57:22;0.83;;;0.83;;
6985;SDS011;3533;51.246;6.850;2023-07-13T02:59:48;1.00;;;0.90;;
6985;SDS011;3533;51.246;6.850;2023-07-13T03:02:13;0.77;;;0.77;;
6985;SDS011;3533;51.246;6.850;2023-07-13T03:04:39;0.90;;;0.90;;
6985;SDS011;3533;51.246;6.850;2023-07-13T03:07:05;0.80;;;0.80;;
6985;SDS011;3533;51.246;6.850;2023-07-13T03:09:32;1.23;;;1.13;;
6985;SDS011;3533;51.246;6.850;2023-07-13T03:11:58;0.87;;;0.87;;
6985;SDS011;3533;51.246;6.850;2023-07-13T03:14:24;0.77;;;0.77;;
6985;SDS011;3533;51.246;6.850;2023-07-13T03:16:50;0.80;;;0.80;;
6985;SDS011;3533;51.246;6.850;2023-07-13T03:19:16;0.90;;;0.90;;
6985;SDS011;3533;51.246;6.850;2023-07-13T03:21:42;0.80;;;0.80;;
6985;SDS011;3533;51.246;6.850;2023-07-13T03:24:08;0.90;;;0.90;;
6985;SDS011;3533;51.246;6.850;2023-07-13T03:26:33;0.80;;;0.80;;
6985;SDS011;3533;51.246;6.850;2023-07-13T03:28:59;1.07;;;0.97;;
6985;SDS011;3533;51.246;6.850;2023-07-13T03:31:26;0.80;;;0.80;;
6985;SDS011;3533;51.246;6.850;2023-07-13T03:33:54;0.87;;;0.80;;
6985;SDS011;3533;51.246;6.850;2023-07-13T03:36:21;0.80;;;0.80;;
6985;SDS011;3533;51.246;6.850;2023-07-13T03:38:49;0.80;;;0.80;;
6985;SDS011;3533;51.246;6.850;2023-07-13T03:41:17;0.70;;;0.70;;
6985;SDS011;3533;51.246;6.850;2023-07-13T03:43:42;0.80;;;0.80;;
6985;SDS011;3533;51.246;6.850;2023-07-13T03:46:08;0.77;;;0.77;;
6985;SDS011;3533;51.246;6.850;2023-07-13T03:48:34;0.87;;;0.87;;
6985;SDS011;3533;51.246;6.850;2023-07-13T03:51:00;1.00;;;0.90;;
6985;SDS011;3533;51.246;6.850;2023-07-13T03:53:26;0.97;;;0.87;;
6985;SDS011;3533;51.246;6.850;2023-07-13T03:55:51;0.70;;;0.67;;
6985;SDS011;3533;51.246;6.850;2023-07-13T03:58:25;1.03;;;0.80;;
6985;SDS011;3533;51.246;6.850;2023-07-13T04:00:58;1.57;;;0.80;;
6985;SDS011;3533;51.246;6.850;2023-07-13T04:03:24;0.80;;;0.80;;
6985;SDS011;3533;51.246;6.850;2023-07-13T04:05:54;1.00;;;0.80;;
6985;SDS011;3533;51.246;6.850;2023-07-13T04:08:24;0.70;;;0.70;;
6985;SDS011;3533;51.246;6.850;2023-07-13T04:10:51;0.70;;;0.70;;
6985;SDS011;3533;51.246;6.850;2023-07-13T04:13:16;0.80;;;0.80;;
6985;SDS011;3533;51.246;6.850;2023-07-13T04:15:41;0.73;;;0.73;;
6985;SDS011;3533;51.246;6.850;2023-07-13T04:18:07;0.90;;;0.90;;
6985;SDS011;3533;51.246;6.850;2023-07-13T04:20:33;0.80;;;0.80;;
6985;SDS011;3533;51.246;6.850;2023-07-13T04:22:59;0.80;;;0.80;;
6985;SDS011;3533;51.246;6.850;2023-07-13T04:25:25;0.80;;;0.80;;
6985;SDS011;3533;51.246;6.850;2023-07-13T04:27:52;0.70;;;0.70;;
6985;SDS011;3533;51.246;6.850;2023-07-13T04:30:17;0.80;;;0.80;;
6985;SDS011;3533;51.246;6.850;2023-07-13T04:32:43;0.80;;;0.80;;
6985;SDS011;3533;51.246;6.850;2023-07-13T04:35:08;0.80;;;0.70;;
6985;SDS011;3533;51.246;6.850;2023-07-13T04:37:34;0.80;;;0.80;;
6985;SDS011;3533;51.246;6.850;2023-07-13T04:40:00;0.90;;;0.90;;
6985;SDS011;3533;51.246;6.850;2023-07-13T04:42:26;1.00;;;0.90;;
6985;SDS011;3533;51.246;6.850;2023-07-13T04:44:51;0.70;;;0.70;;
6985;SDS011;3533;51.246;6.850;2023-07-13T04:47:18;0.80;;;0.80;;
6985;SDS011;3533;51.246;6.850;2023-07-13T04:49:44;0.70;;;0.70;;
6985;SDS011;3533;51.246;6.850;2023-07-13T04:52:10;0.93;;;0.90;;
6985;SDS011;3533;51.246;6.850;2023-07-13T04:54:36;0.83;;;0.83;;
6985;SDS011;3533;51.246;6.850;2023-07-13T04:57:03;0.70;;;0.70;;
6985;SDS011;3533;51.246;6.850;2023-07-13T04:59:31;0.80;;;0.80;;
6985;SDS011;3533;51.246;6.850;2023-07-13T05:01:57;0.90;;;0.80;;
6985;SDS011;3533;51.246;6.850;2023-07-13T05:04:22;0.80;;;0.80;;
6985;SDS011;3533;51.246;6.850;2023-07-13T05:06:48;1.03;;;0.93;;
6985;SDS011;3533;51.246;6.850;2023-07-13T05:09:13;0.80;;;0.80;;
6985;SDS011;3533;51.246;6.850;2023-07-13T05:11:39;2.67;;;0.70;;
6985;SDS011;3533;51.246;6.850;2023-07-13T05:14:05;0.63;;;0.60;;
6985;SDS011;3533;51.246;6.850;2023-07-13T05:16:30;0.90;;;0.70;;
6985;SDS011;3533;51.246;6.850;2023-07-13T05:18:57;0.80;;;0.80;;
6985;SDS011;3533;51.246;6.850;2023-07-13T05:21:22;0.70;;;0.70;;
6985;SDS011;3533;51.246;6.850;2023-07-13T05:23:48;0.90;;;0.90;;
6985;SDS011;3533;51.246;6.850;2023-07-13T05:26:14;0.73;;;0.73;;
6985;SDS011;3533;51.246;6.850;2023-07-13T05:28:40;0.77;;;0.77;;
6985;SDS011;3533;51.246;6.850;2023-07-13T05:31:07;1.00;;;0.90;;
6985;SDS011;3533;51.246;6.850;2023-07-13T05:33:34;0.80;;;0.80;;
6985;SDS011;3533;51.246;6.850;2023-07-13T05:35:59;0.70;;;0.60;;
6985;SDS011;3533;51.246;6.850;2023-07-13T05:38:25;0.80;;;0.80;;
6985;SDS011;3533;51.246;6.850;2023-07-13T05:40:53;0.90;;;0.80;;
6985;SDS011;3533;51.246;6.850;2023-07-13T05:43:20;0.70;;;0.70;;
6985;SDS011;3533;51.246;6.850;2023-07-13T05:45:46;0.80;;;0.80;;
6985;SDS011;3533;51.246;6.850;2023-07-13T05:48:12;0.80;;;0.80;;
6985;SDS011;3533;51.246;6.850;2023-07-13T05:50:38;0.90;;;0.80;;
6985;SDS011;3533;51.246;6.850;2023-07-13T05:53:03;0.70;;;0.70;;
6985;SDS011;3533;51.246;6.850;2023-07-13T05:55:29;0.90;;;0.80;;
6985;SDS011;3533;51.246;6.850;2023-07-13T05:57:55;1.13;;;0.80;;
6985;SDS011;3533;51.246;6.850;2023-07-13T06:00:22;0.70;;;0.67;;
6985;SDS011;3533;51.246;6.850;2023-07-13T06:02:49;0.90;;;0.90;;
6985;SDS011;3533;51.246;6.850;2023-07-13T06:05:14;0.97;;;0.90;;
6985;SDS011;3533;51.246;6.850;2023-07-13T06:07:40;0.73;;;0.73;;
6985;SDS011;3533;51.246;6.850;2023-07-13T06:10:07;0.80;;;0.80;;
6985;SDS011;3533;51.246;6.850;2023-07-13T06:12:32;1.00;;;0.90;;
6985;SDS011;3533;51.246;6.850;2023-07-13T06:14:58;0.87;;;0.80;;
6985;SDS011;3533;51.246;6.850;2023-07-13T06:17:23;0.80;;;0.80;;
6985;SDS011;3533;51.246;6.850;2023-07-13T06:19:49;0.97;;;0.70;;
6985;SDS011;3533;51.246;6.850;2023-07-13T06:22:14;0.80;;;0.80;;
6985;SDS011;3533;51.246;6.850;2023-07-13T06:24:40;0.93;;;0.90;;
6985;SDS011;3533;51.246;6.850;2023-07-13T06:27:05;0.80;;;0.80;;
6985;SDS011;3533;51.246;6.850;2023-07-13T06:29:31;0.97;;;0.87;;
6985;SDS011;3533;51.246;6.850;2023-07-13T06:31:56;1.00;;;0.90;;
6985;SDS011;3533;51.246;6.850;2023-07-13T06:34:22;0.80;;;0.80;;
6985;SDS011;3533;51.246;6.850;2023-07-13T06:36:48;0.93;;;0.90;;
6985;SDS011;3533;51.246;6.850;2023-07-13T06:39:13;0.70;;;0.70;;
6985;SDS011;3533;51.246;6.850;2023-07-13T06:41:39;0.73;;;0.73;;
6985;SDS011;3533;51.246;6.850;2023-07-13T06:44:04;0.73;;;0.73;;
6985;SDS011;3533;51.246;6.850;2023-07-13T06:46:31;1.00;;;0.90;;
6985;SDS011;3533;51.246;6.850;2023-07-13T06:48:57;0.73;;;0.73;;
6985;SDS011;3533;51.246;6.850;2023-07-13T06:51:22;0.80;;;0.80;;
6985;SDS011;3533;51.246;6.850;2023-07-13T06:53:48;0.80;;;0.80;;
6985;SDS011;3533;51.246;6.850;2023-07-13T06:56:14;0.80;;;0.80;;
6985;SDS011;3533;51.246;6.850;2023-07-13T06:58:40;1.00;;;0.90;;
6985;SDS011;3533;51.246;6.850;2023-07-13T07:01:06;0.90;;;0.80;;
6985;SDS011;3533;51.246;6.850;2023-07-13T07:03:31;0.77;;;0.77;;
6985;SDS011;3533;51.246;6.850;2023-07-13T07:06:01;0.90;;;0.90;;
6985;SDS011;3533;51.246;6.850;2023-07-13T07:08:44;0.80;;;0.80;;
6985;SDS011;3533;51.246;6.850;2023-07-13T07:13:42;0.70;;;0.70;;
6985;SDS011;3533;51.246;6.850;2023-07-13T07:16:07;0.80;;;0.80;;
6985;SDS011;3533;51.246;6.850;2023-07-13T07:18:33;0.83;;;0.80;;
6985;SDS011;3533;51.246;6.850;2023-07-13T07:20:59;0.80;;;0.80;;
6985;SDS011;3533;51.246;6.850;2023-07-13T07:23:25;1.00;;;0.90;;
6985;SDS011;3533;51.246;6.850;2023-07-13T07:25:51;0.80;;;0.80;;
6985;SDS011;3533;51.246;6.850;2023-07-13T07:28:17;0.67;;;0.67;;
6985;SDS011;3533;51.246;6.850;2023-07-13T07:30:43;0.80;;;0.70;;
6985;SDS011;3533;51.246;6.850;2023-07-13T07:33:09;1.00;;;0.90;;
6985;SDS011;3533;51.246;6.850;2023-07-13T07:35:35;0.80;;;0.80;;
6985;SDS011;3533;51.246;6.850;2023-07-13T07:38:00;0.80;;;0.80;;
6985;SDS011;3533;51.246;6.850;2023-07-13T07:40:26;0.80;;;0.80;;
6985;SDS011;3533;51.246;6.850;2023-07-13T07:42:51;0.83;;;0.73;;
6985;SDS011;3533;51.246;6.850;2023-07-13T07:45:17;0.90;;;0.90;;
6985;SDS011;3533;51.246;6.850;2023-07-13T07:47:44;0.90;;;0.83;;
6985;SDS011;3533;51.246;6.850;2023-07-13T07:50:09;0.97;;;0.87;;
6985;SDS011;3533;51.246;6.850;2023-07-13T07:52:35;0.83;;;0.83;;
6985;SDS011;3533;51.246;6.850;2023-07-13T07:55:01;2.60;;;1.03;;
6985;SDS011;3533;51.246;6.850;2023-07-13T07:57:27;0.97;;;0.90;;
6985;SDS011;3533;51.246;6.850;2023-07-13T07:59:52;0.80;;;0.80;;
6985;SDS011;3533;51.246;6.850;2023-07-13T08:02:18;1.10;;;0.97;;
6985;SDS011;3533;51.246;6.850;2023-07-13T08:04:43;1.00;;;0.90;;
6985;SDS011;3533;51.246;6.850;2023-07-13T08:07:09;0.80;;;0.80;;
6985;SDS011;3533;51.246;6.850;2023-07-13T08:09:34;0.80;;;0.80;;
6985;SDS011;3533;51.246;6.850;2023-07-13T08:12:00;0.70;;;0.70;;
6985;SDS011;3533;51.246;6.850;2023-07-13T08:14:26;0.90;;;0.90;;
6985;SDS011;3533;51.246;6.850;2023-07-13T08:16:51;1.03;;;1.00;;
6985;SDS011;3533;51.246;6.850;2023-07-13T08:19:17;0.87;;;0.87;;
6985;SDS011;3533;51.246;6.850;2023-07-13T08:21:42;1.40;;;0.83;;
6985;SDS011;3533;51.246;6.850;2023-07-13T08:24:08;1.20;;;1.10;;
6985;SDS011;3533;51.246;6.850;2023-07-13T08:26:34;0.87;;;0.87;;
6985;SDS011;3533;51.246;6.850;2023-07-13T08:29:00;0.77;;;0.77;;
6985;SDS011;3533;51.246;6.850;2023-07-13T08:31:26;0.80;;;0.80;;
6985;SDS011;3533;51.246;6.850;2023-07-13T08:33:51;1.20;;;1.10;;
6985;SDS011;3533;51.246;6.850;2023-07-13T08:36:17;0.93;;;0.90;;
6985;SDS011;3533;51.246;6.850;2023-07-13T08:38:42;0.70;;;0.70;;
6985;SDS011;3533;51.246;6.850;2023-07-13T08:41:15;0.90;;;0.90;;
6985;SDS011;3533;51.246;6.850;2023-07-13T08:43:45;1.00;;;0.90;;
6985;SDS011;3533;51.246;6.850;2023-07-13T08:48:56;1.10;;;1.10;;
6985;SDS011;3533;51.246;6.850;2023-07-13T08:51:32;1.33;;;1.07;;
6985;SDS011;3533;51.246;6.850;2023-07-13T08:54:00;1.10;;;1.00;;
6985;SDS011;3533;51.246;6.850;2023-07-13T08:56:30;0.83;;;0.83;;
6985;SDS011;3533;51.246;6.850;2023-07-13T08:58:58;1.10;;;1.00;;
6985;SDS011;3533;51.246;6.850;2023-07-13T09:04:32;1.07;;;0.97;;
6985;SDS011;3533;51.246;6.850;2023-07-13T09:10:00;1.13;;;1.03;;
6985;SDS011;3533;51.246;6.850;2023-07-13T09:15:26;1.10;;;1.00;;
6985;SDS011;3533;51.246;6.850;2023-07-13T09:17:59;1.00;;;0.90;;
6985;SDS011;3533;51.246;6.850;2023-07-13T09:20:31;1.20;;;1.10;;
6985;SDS011;3533;51.246;6.850;2023-07-13T09:23:11;1.17;;;0.90;;
6985;SDS011;3533;51.246;6.850;2023-07-13T09:25:40;1.20;;;1.10;;
6985;SDS011;3533;51.246;6.850;2023-07-13T09:30:38;1.30;;;1.20;;
6985;SDS011;3533;51.246;6.850;2023-07-13T09:33:19;1.23;;;0.90;;
6985;SDS011;3533;51.246;6.850;2023-07-13T09:35:45;1.23;;;1.13;;
6985;SDS011;3533;51.246;6.850;2023-07-13T09:38:12;1.10;;;1.00;;
6985;SDS011;3533;51.246;6.850;2023-07-13T09:44:07;1.10;;;1.00;;
6985;SDS011;3533;51.246;6.850;2023-07-13T09:46:37;1.20;;;1.10;;
6985;SDS011;3533;51.246;6.850;2023-07-13T09:49:04;1.20;;;1.10;;
6985;SDS011;3533;51.246;6.850;2023-07-13T09:51:30;0.90;;;0.90;;
6985;SDS011;3533;51.246;6.850;2023-07-13T09:53:55;1.40;;;1.30;;
6985;SDS011;3533;51.246;6.850;2023-07-13T09:56:22;1.20;;;1.10;;
6985;SDS011;3533;51.246;6.850;2023-07-13T09:58:49;1.20;;;1.10;;
6985;SDS011;3533;51.246;6.850;2023-07-13T10:01:14;1.13;;;1.03;;
6985;SDS011;3533;51.246;6.850;2023-07-13T10:03:43;1.10;;;1.07;;
6985;SDS011;3533;51.246;6.850;2023-07-13T10:06:19;1.30;;;1.20;;
6985;SDS011;3533;51.246;6.850;2023-07-13T10:08:47;1.20;;;1.10;;
6985;SDS011;3533;51.246;6.850;2023-07-13T10:13:46;1.13;;;1.03;;
6985;SDS011;3533;51.246;6.850;2023-07-13T10:16:20;1.30;;;1.20;;
6985;SDS011;3533;51.246;6.850;2023-07-13T10:18:51;1.10;;;1.00;;
6985;SDS011;3533;51.246;6.850;2023-07-13T10:21:23;1.27;;;1.17;;
6985;SDS011;3533;51.246;6.850;2023-07-13T10:24:14;1.17;;;1.07;;
6985;SDS011;3533;51.246;6.850;2023-07-13T10:26:48;1.50;;;1.40;;
6985;SDS011;3533;51.246;6.850;2023-07-13T10:29:21;2.03;;;1.20;;
6985;SDS011;3533;51.246;6.850;2023-07-13T10:31:50;1.30;;;1.20;;
6985;SDS011;3533;51.246;6.850;2023-07-13T10:34:16;1.17;;;1.07;;
6985;SDS011;3533;51.246;6.850;2023-07-13T10:36:43;1.17;;;1.10;;
6985;SDS011;3533;51.246;6.850;2023-07-13T10:39:18;1.30;;;1.10;;
6985;SDS011;3533;51.246;6.850;2023-07-13T10:41:46;1.03;;;1.03;;
6985;SDS011;3533;51.246;6.850;2023-07-13T10:44:19;1.20;;;1.10;;
6985;SDS011;3533;51.246;6.850;2023-07-13T10:46:51;1.10;;;1.00;;
6985;SDS011;3533;51.246;6.850;2023-07-13T10:49:19;1.30;;;1.20;;
6985;SDS011;3533;51.246;6.850;2023-07-13T10:51:46;1.03;;;1.00;;
6985;SDS011;3533;51.246;6.850;2023-07-13T10:54:26;1.40;;;1.30;;
6985;SDS011;3533;51.246;6.850;2023-07-13T10:59:43;1.30;;;1.20;;
6985;SDS011;3533;51.246;6.850;2023-07-13T11:02:20;1.00;;;1.00;;
6985;SDS011;3533;51.246;6.850;2023-07-13T11:04:50;1.37;;;1.27;;
6985;SDS011;3533;51.246;6.850;2023-07-13T11:07:20;1.23;;;1.13;;
6985;SDS011;3533;51.246;6.850;2023-07-13T11:09:58;2.17;;;1.20;;
6985;SDS011;3533;51.246;6.850;2023-07-13T11:20:09;1.30;;;1.10;;
6985;SDS011;3533;51.246;6.850;2023-07-13T11:22:49;1.17;;;1.07;;
6985;SDS011;3533;51.246;6.850;2023-07-13T11:27:46;1.30;;;1.20;;
6985;SDS011;3533;51.246;6.850;2023-07-13T11:35:35;1.30;;;1.10;;
6985;SDS011;3533;51.246;6.850;2023-07-13T11:38:03;1.20;;;1.10;;
6985;SDS011;3533;51.246;6.850;2023-07-13T11:40:39;1.33;;;1.23;;
6985;SDS011;3533;51.246;6.850;2023-07-13T11:43:06;1.43;;;1.33;;
6985;SDS011;3533;51.246;6.850;2023-07-13T11:45:32;1.10;;;1.10;;
6985;SDS011;3533;51.246;6.850;2023-07-13T11:47:58;1.27;;;1.17;;
6985;SDS011;3533;51.246;6.850;2023-07-13T11:50:25;1.20;;;1.10;;
6985;SDS011;3533;51.246;6.850;2023-07-13T11:52:52;1.10;;;1.00;;
6985;SDS011;3533;51.246;6.850;2023-07-13T11:55:20;1.40;;;1.30;;
6985;SDS011;3533;51.246;6.850;2023-07-13T11:57:57;1.33;;;1.23;;
6985;SDS011;3533;51.246;6.850;2023-07-13T12:00:26;1.30;;;1.20;;
6985;SDS011;3533;51.246;6.850;2023-07-13T12:02:56;1.00;;;1.00;;
6985;SDS011;3533;51.246;6.850;2023-07-13T12:05:24;1.20;;;1.10;;
6985;SDS011;3533;51.246;6.850;2023-07-13T12:07:50;1.30;;;1.20;;
6985;SDS011;3533;51.246;6.850;2023-07-13T12:10:29;1.70;;;1.23;;
6985;SDS011;3533;51.246;6.850;2023-07-13T12:12:59;1.20;;;1.10;;
6985;SDS011;3533;51.246;6.850;2023-07-13T12:15:34;1.10;;;1.03;;
6985;SDS011;3533;51.246;6.850;2023-07-13T12:18:00;1.30;;;1.20;;
6985;SDS011;3533;51.246;6.850;2023-07-13T12:20:27;1.10;;;1.00;;
6985;SDS011;3533;51.246;6.850;2023-07-13T12:22:59;1.40;;;1.30;;
6985;SDS011;3533;51.246;6.850;2023-07-13T12:25:27;1.23;;;1.17;;
6985;SDS011;3533;51.246;6.850;2023-07-13T12:27:53;1.30;;;1.20;;
6985;SDS011;3533;51.246;6.850;2023-07-13T12:32:58;1.47;;;1.37;;
6985;SDS011;3533;51.246;6.850;2023-07-13T12:35:24;1.10;;;1.00;;
6985;SDS011;3533;51.246;6.850;2023-07-13T12:37:54;1.23;;;1.13;;
6985;SDS011;3533;51.246;6.850;2023-07-13T12:40:24;1.30;;;1.20;;
6985;SDS011;3533;51.246;6.850;2023-07-13T12:42:59;1.10;;;1.00;;
6985;SDS011;3533;51.246;6.850;2023-07-13T12:45:29;1.20;;;1.10;;
6985;SDS011;3533;51.246;6.850;2023-07-13T12:47:56;1.40;;;1.30;;
6985;SDS011;3533;51.246;6.850;2023-07-13T12:50:30;1.20;;;1.10;;
6985;SDS011;3533;51.246;6.850;2023-07-13T12:53:03;1.10;;;1.03;;
6985;SDS011;3533;51.246;6.850;2023-07-13T12:55:32;1.20;;;1.10;;
6985;SDS011;3533;51.246;6.850;2023-07-13T12:58:14;1.03;;;0.97;;
6985;SDS011;3533;51.246;6.850;2023-07-13T13:00:50;1.30;;;1.20;;
6985;SDS011;3533;51.246;6.850;2023-07-13T13:03:22;1.13;;;1.03;;
6985;SDS011;3533;51.246;6.850;2023-07-13T13:05:59;1.30;;;1.20;;
6985;SDS011;3533;51.246;6.850;2023-07-13T13:08:31;1.00;;;1.00;;
6985;SDS011;3533;51.246;6.850;2023-07-13T13:11:03;1.10;;;1.10;;
6985;SDS011;3533;51.246;6.850;2023-07-13T13:13:28;1.00;;;1.00;;
6985;SDS011;3533;51.246;6.850;2023-07-13T13:15:54;1.40;;;1.30;;
6985;SDS011;3533;51.246;6.850;2023-07-13T13:18:21;1.10;;;1.10;;
6985;SDS011;3533;51.246;6.850;2023-07-13T13:20:48;1.27;;;1.17;;
6985;SDS011;3533;51.246;6.850;2023-07-13T13:23:16;1.20;;;1.10;;
6985;SDS011;3533;51.246;6.850;2023-07-13T13:25:48;1.07;;;0.97;;
6985;SDS011;3533;51.246;6.850;2023-07-13T13:28:16;1.30;;;1.20;;
6985;SDS011;3533;51.246;6.850;2023-07-13T13:30:44;1.23;;;1.13;;
6985;SDS011;3533;51.246;6.850;2023-07-13T13:33:12;1.07;;;0.97;;
6985;SDS011;3533;51.246;6.850;2023-07-13T13:35:41;1.13;;;1.03;;
6985;SDS011;3533;51.246;6.850;2023-07-13T13:38:13;1.10;;;1.00;;
6985;SDS011;3533;51.246;6.850;2023-07-13T13:40:42;2.17;;;1.17;;
6985;SDS011;3533;51.246;6.850;2023-07-13T13:43:18;1.17;;;1.07;;
6985;SDS011;3533;51.246;6.850;2023-07-13T13:45:50;1.30;;;1.20;;
6985;SDS011;3533;51.246;6.850;2023-07-13T13:48:17;1.30;;;1.20;;
6985;SDS011;3533;51.246;6.850;2023-07-13T13:50:44;1.00;;;1.00;;
6985;SDS011;3533;51.246;6.850;2023-07-13T13:53:11;1.30;;;1.20;;
6985;SDS011;3533;51.246;6.850;2023-07-13T13:55:38;1.17;;;1.07;;
6985;SDS011;3533;51.246;6.850;2023-07-13T13:58:06;1.30;;;1.20;;
6985;SDS011;3533;51.246;6.850;2023-07-13T14:00:33;1.17;;;1.07;;
6985;SDS011;3533;51.246;6.850;2023-07-13T14:02:58;1.10;;;1.00;;
6985;SDS011;3533;51.246;6.850;2023-07-13T14:05:25;1.30;;;1.20;;
6985;SDS011;3533;51.246;6.850;2023-07-13T14:07:51;1.07;;;1.07;;
6985;SDS011;3533;51.246;6.850;2023-07-13T14:10:18;1.00;;;1.00;;
6985;SDS011;3533;51.246;6.850;2023-07-13T14:12:48;1.20;;;1.10;;
6985;SDS011;3533;51.246;6.850;2023-07-13T14:15:19;1.20;;;1.10;;
6985;SDS011;3533;51.246;6.850;2023-07-13T14:17:51;1.20;;;1.10;;
6985;SDS011;3533;51.246;6.850;2023-07-13T14:20:17;1.20;;;1.10;;
6985;SDS011;3533;51.246;6.850;2023-07-13T14:22:44;1.27;;;1.17;;
6985;SDS011;3533;51.246;6.850;2023-07-13T14:25:11;1.20;;;1.13;;
6985;SDS011;3533;51.246;6.850;2023-07-13T14:27:38;1.10;;;1.00;;
6985;SDS011;3533;51.246;6.850;2023-07-13T14:30:11;1.00;;;1.00;;
6985;SDS011;3533;51.246;6.850;2023-07-13T14:32:41;1.33;;;1.23;;
6985;SDS011;3533;51.246;6.850;2023-07-13T14:35:13;1.10;;;1.10;;
6985;SDS011;3533;51.246;6.850;2023-07-13T14:37:40;1.00;;;1.00;;
6985;SDS011;3533;51.246;6.850;2023-07-13T14:40:13;1.10;;;1.10;;
6985;SDS011;3533;51.246;6.850;2023-07-13T14:42:51;1.17;;;1.07;;
6985;SDS011;3533;51.246;6.850;2023-07-13T14:45:18;1.30;;;1.20;;
6985;SDS011;3533;51.246;6.850;2023-07-13T14:47:44;1.13;;;1.03;;
6985;SDS011;3533;51.246;6.850;2023-07-13T14:50:12;1.20;;;1.10;;
6985;SDS011;3533;51.246;6.850;2023-07-13T14:52:42;1.30;;;1.20;;
6985;SDS011;3533;51.246;6.850;2023-07-13T14:55:09;1.30;;;1.20;;
6985;SDS011;3533;51.246;6.850;2023-07-13T14:57:36;1.00;;;1.00;;
6985;SDS011;3533;51.246;6.850;2023-07-13T15:00:03;0.90;;;0.90;;
6985;SDS011;3533;51.246;6.850;2023-07-13T15:02:32;1.20;;;1.10;;
6985;SDS011;3533;51.246;6.850;2023-07-13T15:04:59;1.20;;;1.10;;
6985;SDS011;3533;51.246;6.850;2023-07-13T15:07:26;1.10;;;1.10;;
6985;SDS011;3533;51.246;6.850;2023-07-13T15:09:51;1.20;;;1.10;;
6985;SDS011;3533;51.246;6.850;2023-07-13T15:12:17;1.30;;;1.20;;
6985;SDS011;3533;51.246;6.850;2023-07-13T15:14:43;1.07;;;1.00;;
6985;SDS011;3533;51.246;6.850;2023-07-13T15:22:48;1.30;;;1.20;;
6985;SDS011;3533;51.246;6.850;2023-07-13T15:25:16;1.00;;;1.00;;
6985;SDS011;3533;51.246;6.850;2023-07-13T15:27:43;1.20;;;1.10;;
6985;SDS011;3533;51.246;6.850;2023-07-13T15:30:09;1.30;;;1.20;;
6985;SDS011;3533;51.246;6.850;2023-07-13T15:32:35;1.10;;;1.00;;
6985;SDS011;3533;51.246;6.850;2023-07-13T15:35:01;1.20;;;1.10;;
6985;SDS011;3533;51.246;6.850;2023-07-13T15:37:26;1.30;;;1.20;;
6985;SDS011;3533;51.246;6.850;2023-07-13T15:39:52;1.40;;;1.30;;
6985;SDS011;3533;51.246;6.850;2023-07-13T15:42:19;1.00;;;1.00;;
6985;SDS011;3533;51.246;6.850;2023-07-13T15:44:46;1.73;;;1.10;;
6985;SDS011;3533;51.246;6.850;2023-07-13T15:47:13;1.03;;;0.97;;
6985;SDS011;3533;51.246;6.850;2023-07-13T15:49:40;0.90;;;0.90;;
6985;SDS011;3533;51.246;6.850;2023-07-13T15:52:24;1.10;;;1.03;;
6985;SDS011;3533;51.246;6.850;2023-07-13T15:54:50;1.20;;;1.10;;
6985;SDS011;3533;51.246;6.850;2023-07-13T15:57:16;1.20;;;1.10;;
6985;SDS011;3533;51.246;6.850;2023-07-13T15:59:42;1.30;;;1.20;;
6985;SDS011;3533;51.246;6.850;2023-07-13T16:02:18;0.80;;;0.80;;
6985;SDS011;3533;51.246;6.850;2023-07-13T16:04:46;1.33;;;1.23;;
6985;SDS011;3533;51.246;6.850;2023-07-13T16:07:13;1.03;;;1.00;;